Time;durP1;ratioP1;P1;durP2;ratioP2;P2;SDS_P1;SDS_P2;PMS_P1;PMS_P2;Temp;Humidity;BMP_temperature;BMP_pressure;BME280_temperature;BME280_humidity;BME280_pressure;Samples;Min_cycle;Max_cycle;Signal;HPM_P1;HPM_P2
2023/04/16 00:02:19;;;;;;;3.8;3.5;;;;;;;;;;;;;
2023/04/16 00:04:44;;;;;;;4.4;4;;;;;;;;;;;;;
2023/04/16 00:07:09;;;;;;;3.9;3.4;;;;;;;;;;;;;
2023/04/16 00:09:34;;;;;;;4.2;3.7;;;;;;;;;;;;;
2023/04/16 00:12:01;;;;;;;4.2;3.8;;;;;;;;;;;;;
2023/04/16 00:14:26;;;;;;;4.1;3.7;;;;;;;;;;;;;
2023/04/16 00:16:51;;;;;;;5.4;4.1;;;;;;;;;;;;;
2023/04/16 00:19:17;;;;;;;4.3;3.9;;;;;;;;;;;;;
2023/04/16 00:21:44;;;;;;;5.2;4.1;;;;;;;;;;;;;
2023/04/16 00:24:09;;;;;;;4.4;4;;;;;;;;;;;;;
2023/04/16 00:26:34;;;;;;;4.4;3.8;;;;;;;;;;;;;
2023/04/16 00:29:00;;;;;;;3.9;3.3;;;;;;;;;;;;;
2023/04/16 00:31:25;;;;;;;3.1;2.8;;;;;;;;;;;;;
2023/04/16 00:33:51;;;;;;;4.5;3.7;;;;;;;;;;;;;
2023/04/16 00:36:16;;;;;;;4.7;4.3;;;;;;;;;;;;;
2023/04/16 00:38:44;;;;;;;4.5;4.1;;;;;;;;;;;;;
2023/04/16 00:41:09;;;;;;;4.3;3.9;;;;;;;;;;;;;
2023/04/16 00:43:34;;;;;;;4.1;3.7;;;;;;;;;;;;;
2023/04/16 00:45:59;;;;;;;5;3.7;;;;;;;;;;;;;
2023/04/16 00:48:26;;;;;;;3.3;3;;;;;;;;;;;;;
2023/04/16 00:50:49;;;;;;;3.3;2.9;;;;;;;;;;;;;
2023/04/16 00:53:15;;;;;;;4.3;3.3;;;;;;;;;;;;;
2023/04/16 00:55:40;;;;;;;3.3;3;;;;;;;;;;;;;
2023/04/16 00:58:05;;;;;;;2.9;2.7;;;;;;;;;;;;;
2023/04/16 01:00:30;;;;;;;2.6;2.4;;;;;;;;;;;;;
2023/04/16 01:02:56;;;;;;;3;2.4;;;;;;;;;;;;;
2023/04/16 01:05:21;;;;;;;3.3;3;;;;;;;;;;;;;
2023/04/16 01:07:47;;;;;;;3.3;3;;;;;;;;;;;;;
2023/04/16 01:10:12;;;;;;;3.4;3.1;;;;;;;;;;;;;
2023/04/16 01:12:39;;;;;;;3.3;3;;;;;;;;;;;;;
2023/04/16 01:15:03;;;;;;;3.6;3.1;;;;;;;;;;;;;
2023/04/16 01:17:31;;;;;;;4.2;3;;;;;;;;;;;;;
2023/04/16 01:19:56;;;;;;;3.3;3;;;;;;;;;;;;;
2023/04/16 01:22:21;;;;;;;2.9;2.7;;;;;;;;;;;;;
2023/04/16 01:24:46;;;;;;;3.2;2.6;;;;;;;;;;;;;
2023/04/16 01:27:11;;;;;;;3.3;2.9;;;;;;;;;;;;;
2023/04/16 01:29:37;;;;;;;3.1;2.8;;;;;;;;;;;;;
2023/04/16 01:32:03;;;;;;;2.6;2.4;;;;;;;;;;;;;
2023/04/16 01:34:28;;;;;;;2.6;2.4;;;;;;;;;;;;;
2023/04/16 01:36:54;;;;;;;3.1;2.8;;;;;;;;;;;;;
2023/04/16 01:39:19;;;;;;;2.4;2.2;;;;;;;;;;;;;
2023/04/16 01:41:47;;;;;;;3.1;2.8;;;;;;;;;;;;;
2023/04/16 01:44:12;;;;;;;3;2.7;;;;;;;;;;;;;
2023/04/16 01:46:37;;;;;;;3;2.7;;;;;;;;;;;;;
2023/04/16 01:49:03;;;;;;;3.2;2.9;;;;;;;;;;;;;
2023/04/16 01:51:28;;;;;;;2.9;2.4;;;;;;;;;;;;;
2023/04/16 01:53:53;;;;;;;2.9;2.6;;;;;;;;;;;;;
2023/04/16 01:56:19;;;;;;;3.1;2.8;;;;;;;;;;;;;
2023/04/16 01:58:45;;;;;;;2.9;2.6;;;;;;;;;;;;;
2023/04/16 02:01:11;;;;;;;3.1;2.6;;;;;;;;;;;;;
2023/04/16 02:03:36;;;;;;;3.2;2.9;;;;;;;;;;;;;
2023/04/16 02:06:01;;;;;;;3.1;2.8;;;;;;;;;;;;;
2023/04/16 02:08:26;;;;;;;3.1;2.8;;;;;;;;;;;;;
2023/04/16 02:10:53;;;;;;;3.2;2.9;;;;;;;;;;;;;
2023/04/16 02:13:18;;;;;;;3.3;3;;;;;;;;;;;;;
2023/04/16 02:15:43;;;;;;;3.2;2.9;;;;;;;;;;;;;
2023/04/16 02:18:08;;;;;;;2.6;2.4;;;;;;;;;;;;;
2023/04/16 02:20:35;;;;;;;3.4;3.1;;;;;;;;;;;;;
2023/04/16 02:22:59;;;;;;;2.8;2.6;;;;;;;;;;;;;
2023/04/16 02:25:24;;;;;;;4.2;2.8;;;;;;;;;;;;;
2023/04/16 02:27:50;;;;;;;3.6;3.3;;;;;;;;;;;;;
2023/04/16 02:30:16;;;;;;;3.5;3.2;;;;;;;;;;;;;
2023/04/16 02:32:41;;;;;;;3.7;3.1;;;;;;;;;;;;;
2023/04/16 02:35:06;;;;;;;2.9;2.5;;;;;;;;;;;;;
2023/04/16 02:37:33;;;;;;;2.6;2.4;;;;;;;;;;;;;
2023/04/16 02:39:58;;;;;;;2.6;2.4;;;;;;;;;;;;;
2023/04/16 02:42:24;;;;;;;2.4;2.2;;;;;;;;;;;;;
2023/04/16 02:44:49;;;;;;;2.6;2.3;;;;;;;;;;;;;
2023/04/16 02:47:15;;;;;;;3.3;3;;;;;;;;;;;;;
2023/04/16 02:49:40;;;;;;;3;2.8;;;;;;;;;;;;;
2023/04/16 02:52:06;;;;;;;2.9;2.6;;;;;;;;;;;;;
2023/04/16 02:54:31;;;;;;;3;2.7;;;;;;;;;;;;;
2023/04/16 02:56:56;;;;;;;2.8;2.6;;;;;;;;;;;;;
2023/04/16 02:59:21;;;;;;;3.1;2.8;;;;;;;;;;;;;
2023/04/16 03:01:46;;;;;;;3.1;2.8;;;;;;;;;;;;;
2023/04/16 03:04:13;;;;;;;3.2;2.7;;;;;;;;;;;;;
2023/04/16 03:06:37;;;;;;;3.6;3.1;;;;;;;;;;;;;
2023/04/16 03:09:02;;;;;;;3;2.7;;;;;;;;;;;;;
2023/04/16 03:11:28;;;;;;;2.7;2.5;;;;;;;;;;;;;
2023/04/16 03:13:55;;;;;;;3.3;2.9;;;;;;;;;;;;;
2023/04/16 03:16:19;;;;;;;3.2;2.9;;;;;;;;;;;;;
2023/04/16 03:18:44;;;;;;;3;2.6;;;;;;;;;;;;;
2023/04/16 03:21:09;;;;;;;2.7;2.5;;;;;;;;;;;;;
2023/04/16 03:23:35;;;;;;;3;2.8;;;;;;;;;;;;;
2023/04/16 03:26:00;;;;;;;2.9;2.4;;;;;;;;;;;;;
2023/04/16 03:28:25;;;;;;;2.8;2.5;;;;;;;;;;;;;
2023/04/16 03:30:52;;;;;;;2.7;2.5;;;;;;;;;;;;;
2023/04/16 03:33:16;;;;;;;2.5;2.3;;;;;;;;;;;;;
2023/04/16 03:35:43;;;;;;;2.7;2.5;;;;;;;;;;;;;
2023/04/16 03:38:08;;;;;;;2.3;2.1;;;;;;;;;;;;;
2023/04/16 03:40:34;;;;;;;2.5;2.3;;;;;;;;;;;;;
2023/04/16 03:42:59;;;;;;;2.4;2.2;;;;;;;;;;;;;
2023/04/16 03:45:25;;;;;;;2.8;2.6;;;;;;;;;;;;;
2023/04/16 03:47:51;;;;;;;2.3;2.1;;;;;;;;;;;;;
2023/04/16 03:50:16;;;;;;;2.6;2.4;;;;;;;;;;;;;
2023/04/16 03:52:41;;;;;;;2.6;2.4;;;;;;;;;;;;;
2023/04/16 03:55:10;;;;;;;2.4;2.2;;;;;;;;;;;;;
2023/04/16 03:57:35;;;;;;;2.2;1.8;;;;;;;;;;;;;
2023/04/16 04:00:00;;;;;;;2.3;2.1;;;;;;;;;;;;;
2023/04/16 04:02:37;;;;;;;2.1;1.9;;;;;;;5.1;91.75977;936.1191;;;;
2023/04/16 04:05:13;;;;;;;2.3;2.1;;;;;;;5.08;92.54492;936.1605;;;;
2023/04/16 04:07:44;;;;;;;2.2;1.8;;;;;;;5.11;92.27051;936.1298;;;;
2023/04/16 04:10:12;;;;;;;2.2;2;;;;;;;5.04;92.24414;936.1161;;;;
2023/04/16 04:12:37;;;;;;;2.4;2.2;;;;;;;5.05;92.60645;936.1936;;;;
2023/04/16 04:15:11;;;;;;;2.2;2;;;;;;;5.08;92.67969;936.2394;;;;
2023/04/16 04:17:40;;;;;;;2.3;2.1;;;;;;;5.1;92.39258;936.2186;;;;
2023/04/16 04:22:32;;;;;;;2.4;2.2;;;;;;;5.17;92.68848;936.1897;;;;
2023/04/16 04:25:02;;;;;;;3;2.1;;;;;;;5.2;93.02344;936.1692;;;;
2023/04/16 04:27:27;;;;;;;2.4;2.2;;;;;;;5.15;92.75195;936.2286;;;;
2023/04/16 04:29:52;;;;;;;2.4;2.1;;;;;;;4.95;92.68652;936.2947;;;;
2023/04/16 04:32:18;;;;;;;1.9;1.8;;;;;;;4.92;92.98242;936.3325;;;;
2023/04/16 04:34:43;;;;;;;2.7;2.2;;;;;;;4.96;93.31934;936.3835;;;;
2023/04/16 04:37:11;;;;;;;2.6;2.4;;;;;;;4.98;93.71777;936.26;;;;
2023/04/16 04:39:36;;;;;;;3.7;2.7;;;;;;;5.01;93.55469;936.3141;;;;
2023/04/16 04:42:05;;;;;;;3.6;2.7;;;;;;;5.14;93.70605;936.3798;;;;
2023/04/16 04:44:30;;;;;;;2.6;2.4;;;;;;;5.05;92.5498;936.3483;;;;
2023/04/16 04:46:57;;;;;;;2.6;2.4;;;;;;;5;93.05859;936.439;;;;
2023/04/16 04:49:22;;;;;;;3.1;2.8;;;;;;;5.06;93.16992;936.4266;;;;
2023/04/16 04:51:48;;;;;;;2.6;2.4;;;;;;;5.16;93.00195;936.4278;;;;
2023/04/16 04:54:13;;;;;;;2.7;2.5;;;;;;;5.15;92.3916;936.4353;;;;
2023/04/16 04:56:39;;;;;;;2.7;2.4;;;;;;;5.16;92.87793;936.4151;;;;
2023/04/16 04:59:04;;;;;;;2.4;2.2;;;;;;;5.18;92.53418;936.4922;;;;
2023/04/16 05:01:35;;;;;;;2.4;2;;;;;;;5.18;92.17383;936.4354;;;;
2023/04/16 05:04:03;;;;;;;2.4;2.1;;;;;;;5.24;92.23047;936.4641;;;;
2023/04/16 05:06:28;;;;;;;2.8;2.6;;;;;;;5.22;92.2832;936.5006;;;;
2023/04/16 05:08:55;;;;;;;2.6;2.4;;;;;;;5.3;91.56543;936.5579;;;;
2023/04/16 05:11:21;;;;;;;2.7;2.5;;;;;;;5.33;91.31348;936.5446;;;;
2023/04/16 05:13:47;;;;;;;2.4;2.2;;;;;;;5.37;91.30957;936.5441;;;;
2023/04/16 05:16:13;;;;;;;2.6;2.4;;;;;;;5.33;91.52832;936.5833;;;;
2023/04/16 05:18:40;;;;;;;9.3;7.3;;;;;;;5.38;91.56055;936.5316;;;;
2023/04/16 05:21:05;;;;;;;4;3.6;;;;;;;5.36;91.5791;936.6606;;;;
2023/04/16 05:23:33;;;;;;;2.4;2.2;;;;;;;5.4;91.52051;936.6506;;;;
2023/04/16 05:25:58;;;;;;;2.1;1.9;;;;;;;5.34;90.97559;936.6135;;;;
2023/04/16 05:28:23;;;;;;;2.2;2;;;;;;;5.42;91.61523;936.6791;;;;
2023/04/16 05:30:49;;;;;;;1.9;1.8;;;;;;;5.48;91.74121;936.7004;;;;
2023/04/16 05:33:18;;;;;;;1.8;1.7;;;;;;;5.52;91.28613;936.6872;;;;
2023/04/16 05:35:43;;;;;;;2.2;2;;;;;;;5.55;90.62598;936.6311;;;;
2023/04/16 05:38:09;;;;;;;2;1.8;;;;;;;5.46;90.79883;936.6792;;;;
2023/04/16 05:40:34;;;;;;;2.2;2;;;;;;;5.46;90.66504;936.7275;;;;
2023/04/16 05:43:02;;;;;;;2;1.8;;;;;;;5.37;91.0166;936.7494;;;;
2023/04/16 05:45:28;;;;;;;2.4;2;;;;;;;5.41;91.35156;936.7892;;;;
2023/04/16 05:47:55;;;;;;;2.4;2.2;;;;;;;5.31;91.32129;936.7786;;;;
2023/04/16 05:50:20;;;;;;;2.3;2.1;;;;;;;5.26;91.60254;936.928;;;;
2023/04/16 05:52:47;;;;;;;2.3;2.1;;;;;;;5.3;91.19336;936.9345;;;;
2023/04/16 05:55:12;;;;;;;1.9;1.8;;;;;;;5.3;90.67383;936.9131;;;;
2023/04/16 05:57:40;;;;;;;1.9;1.7;;;;;;;5.3;90.96973;936.918;;;;
2023/04/16 06:00:05;;;;;;;2.1;1.9;;;;;;;5.34;90.63672;936.9127;;;;
2023/04/16 06:02:31;;;;;;;2.2;2;;;;;;;5.39;91.05469;936.918;;;;
2023/04/16 06:04:56;;;;;;;1.6;1.5;;;;;;;5.29;90.12109;937.0244;;;;
2023/04/16 06:07:21;;;;;;;1.6;1.5;;;;;;;5.29;90.61621;936.9295;;;;
2023/04/16 06:09:49;;;;;;;2.8;1.6;;;;;;;5.34;90.86426;937.0154;;;;
2023/04/16 06:12:14;;;;;;;2.1;1.9;;;;;;;5.43;90.46582;936.9327;;;;
2023/04/16 06:14:41;;;;;;;2.1;1.9;;;;;;;5.41;90.23633;937.0334;;;;
2023/04/16 06:17:06;;;;;;;2.2;2;;;;;;;5.42;90.22559;937.0446;;;;
2023/04/16 06:19:32;;;;;;;2.2;2;;;;;;;5.45;90.05078;937.0382;;;;
2023/04/16 06:21:57;;;;;;;2.4;2.2;;;;;;;5.54;90.29688;936.9949;;;;
2023/04/16 06:24:23;;;;;;;2.4;2.2;;;;;;;5.63;90.1582;937.033;;;;
2023/04/16 06:26:48;;;;;;;3.3;2.7;;;;;;;5.73;89.96484;937.0923;;;;
2023/04/16 06:29:16;;;;;;;2.5;2.2;;;;;;;5.75;89.05371;937.055;;;;
2023/04/16 06:31:41;;;;;;;2.6;1.9;;;;;;;5.77;89.74609;937.0594;;;;
2023/04/16 06:34:09;;;;;;;2.4;2.2;;;;;;;5.83;89.96289;937.074;;;;
2023/04/16 06:36:36;;;;;;;1.7;1.6;;;;;;;5.94;89.71484;937.035;;;;
2023/04/16 06:39:03;;;;;;;1.5;1.4;;;;;;;5.94;88.80176;937.0834;;;;
2023/04/16 06:41:28;;;;;;;1.5;1.4;;;;;;;5.97;88.82813;937.0175;;;;
2023/04/16 06:43:54;;;;;;;1.7;1.6;;;;;;;6.03;89.0459;937.0614;;;;
2023/04/16 06:46:19;;;;;;;1.5;1.4;;;;;;;6.02;88.98633;937.0617;;;;
2023/04/16 06:48:44;;;;;;;1.5;1.4;;;;;;;6.02;89.27051;937.0539;;;;
2023/04/16 06:51:10;;;;;;;1.4;1.3;;;;;;;6.12;89.88965;937.0934;;;;
2023/04/16 06:53:36;;;;;;;1.7;1.6;;;;;;;6.24;89.47363;937.1149;;;;
2023/04/16 06:56:00;;;;;;;2;1.8;;;;;;;6.29;88.10352;937.0615;;;;
2023/04/16 06:58:28;;;;;;;1.2;1.2;;;;;;;6.35;88.25293;937.0186;;;;
2023/04/16 07:00:53;;;;;;;2.3;1.5;;;;;;;6.36;88.48047;937.1192;;;;
2023/04/16 07:03:19;;;;;;;1.5;1.2;;;;;;;6.44;87.53613;937.1055;;;;
2023/04/16 07:05:44;;;;;;;2.5;1.3;;;;;;;6.5;86.99316;937.1107;;;;
2023/04/16 07:08:10;;;;;;;1.1;1;;;;;;;6.49;87.16113;937.1027;;;;
2023/04/16 07:10:35;;;;;;;1;1;;;;;;;6.34;87.4248;937.0919;;;;
2023/04/16 07:13:03;;;;;;;1.4;1.3;;;;;;;6.41;87.5625;937.1221;;;;
2023/04/16 07:15:28;;;;;;;1.2;1.1;;;;;;;6.46;87.38184;937.1154;;;;
2023/04/16 07:17:57;;;;;;;1.6;1.2;;;;;;;6.6;87.51074;937.094;;;;
2023/04/16 07:20:28;;;;;;;1.2;1.1;;;;;;;6.75;86.50098;937.0929;;;;
2023/04/16 07:22:58;;;;;;;1.2;1.1;;;;;;;6.87;86.13965;937.0783;;;;
2023/04/16 07:25:22;;;;;;;0.8;0.8;;;;;;;7;84.77246;937.0889;;;;
2023/04/16 07:27:50;;;;;;;1;1;;;;;;;6.55;84.04004;937.1152;;;;
2023/04/16 07:30:15;;;;;;;1.1;1;;;;;;;6.7;85.4375;937.1178;;;;
2023/04/16 07:32:41;;;;;;;2;0.9;;;;;;;7.13;85.12598;937.1456;;;;
2023/04/16 07:35:06;;;;;;;0.9;0.9;;;;;;;7.04;82.0293;937.147;;;;
2023/04/16 07:37:31;;;;;;;1;0.9;;;;;;;;;;;;;
2023/04/16 07:39:57;;;;;;;0.7;0.7;;;;;;;;;;;;;
2023/04/16 07:42:22;;;;;;;0.7;0.7;;;;;;;;;;;;;
2023/04/16 07:44:47;;;;;;;0.8;0.8;;;;;;;;;;;;;
2023/04/16 07:47:13;;;;;;;1.2;1.1;;;;;;;;;;;;;
2023/04/16 07:49:38;;;;;;;0.8;0.8;;;;;;;;;;;;;
2023/04/16 07:52:04;;;;;;;0.7;0.7;;;;;;;;;;;;;
2023/04/16 07:54:30;;;;;;;2.3;2.1;;;;;;;;;;;;;
2023/04/16 07:56:55;;;;;;;2.9;1;;;;;;;;;;;;;
2023/04/16 07:59:20;;;;;;;2.7;1.5;;;;;;;;;;;;;
2023/04/16 08:01:45;;;;;;;1.3;1.2;;;;;;;;;;;;;
2023/04/16 08:04:11;;;;;;;1.1;1;;;;;;;;;;;;;
2023/04/16 08:06:36;;;;;;;1;1;;;;;;;;;;;;;
2023/04/16 08:09:01;;;;;;;1.3;1.2;;;;;;;;;;;;;
2023/04/16 08:11:26;;;;;;;1.3;1.2;;;;;;;;;;;;;
2023/04/16 08:13:52;;;;;;;1.1;1.1;;;;;;;;;;;;;
2023/04/16 08:16:18;;;;;;;1.6;1.2;;;;;;;;;;;;;
2023/04/16 08:18:44;;;;;;;1.3;1.2;;;;;;;;;;;;;
2023/04/16 08:21:09;;;;;;;1.2;1.1;;;;;;;;;;;;;
2023/04/16 08:23:36;;;;;;;1.6;1.4;;;;;;;;;;;;;
2023/04/16 08:26:01;;;;;;;2;1.4;;;;;;;;;;;;;
2023/04/16 08:28:26;;;;;;;1.7;1.6;;;;;;;;;;;;;
2023/04/16 08:30:51;;;;;;;0.9;0.9;;;;;;;;;;;;;
2023/04/16 08:33:17;;;;;;;1;1;;;;;;;;;;;;;
2023/04/16 08:35:42;;;;;;;0.9;0.9;;;;;;;;;;;;;
2023/04/16 08:38:09;;;;;;;1;1;;;;;;;;;;;;;
2023/04/16 08:40:34;;;;;;;1.3;1.2;;;;;;;;;;;;;
2023/04/16 08:42:59;;;;;;;1.1;1.1;;;;;;;;;;;;;
2023/04/16 08:45:24;;;;;;;1.3;1;;;;;;;;;;;;;
2023/04/16 08:47:50;;;;;;;2.4;2.3;;;;;;;;;;;;;
2023/04/16 08:50:15;;;;;;;1.6;1.4;;;;;;;;;;;;;
2023/04/16 08:52:40;;;;;;;0.6;0.6;;;;;;;;;;;;;
2023/04/16 08:55:06;;;;;;;0.5;0.5;;;;;;;;;;;;;
2023/04/16 08:57:33;;;;;;;0.8;0.8;;;;;;;;;;;;;
2023/04/16 08:59:58;;;;;;;0.8;0.8;;;;;;;;;;;;;
2023/04/16 09:02:24;;;;;;;0.9;0.9;;;;;;;;;;;;;
2023/04/16 09:04:49;;;;;;;0.8;0.7;;;;;;;;;;;;;
2023/04/16 09:07:15;;;;;;;2.1;1.3;;;;;;;;;;;;;
2023/04/16 09:09:40;;;;;;;0.8;0.8;;;;;;;;;;;;;
2023/04/16 09:12:05;;;;;;;1.2;0.9;;;;;;;;;;;;;
2023/04/16 09:14:30;;;;;;;0.8;0.8;;;;;;;;;;;;;
2023/04/16 09:16:59;;;;;;;0.7;0.7;;;;;;;;;;;;;
2023/04/16 09:19:21;;;;;;;0.7;0.7;;;;;;;;;;;;;
2023/04/16 09:21:48;;;;;;;1.2;0.7;;;;;;;;;;;;;
2023/04/16 09:24:13;;;;;;;0.8;0.8;;;;;;;;;;;;;
2023/04/16 09:26:40;;;;;;;1.9;0.9;;;;;;;;;;;;;
2023/04/16 09:29:05;;;;;;;0.6;0.6;;;;;;;;;;;;;
2023/04/16 09:31:30;;;;;;;0.9;0.9;;;;;;;;;;;;;
2023/04/16 09:33:55;;;;;;;0.8;0.8;;;;;;;;;;;;;
2023/04/16 09:36:20;;;;;;;0.9;0.8;;;;;;;;;;;;;
2023/04/16 09:38:45;;;;;;;0.8;0.8;;;;;;;;;;;;;
2023/04/16 09:41:11;;;;;;;0.7;0.7;;;;;;;;;;;;;
2023/04/16 09:43:36;;;;;;;0.6;0.6;;;;;;;;;;;;;
2023/04/16 09:46:01;;;;;;;0.7;0.7;;;;;;;;;;;;;
2023/04/16 09:48:28;;;;;;;0.7;0.7;;;;;;;;;;;;;
2023/04/16 09:50:53;;;;;;;0.9;0.9;;;;;;;;;;;;;
2023/04/16 09:53:19;;;;;;;1.3;0.9;;;;;;;;;;;;;
2023/04/16 09:55:44;;;;;;;0.8;0.8;;;;;;;;;;;;;
2023/04/16 09:58:09;;;;;;;0.8;0.8;;;;;;;;;;;;;
2023/04/16 10:00:34;;;;;;;0.8;0.8;;;;;;;;;;;;;
2023/04/16 10:02:59;;;;;;;0.6;0.6;;;;;;;;;;;;;
2023/04/16 10:05:27;;;;;;;0.6;0.6;;;;;;;;;;;;;
2023/04/16 10:07:52;;;;;;;0.5;0.5;;;;;;;;;;;;;
2023/04/16 10:10:17;;;;;;;0.6;0.6;;;;;;;;;;;;;
2023/04/16 10:12:42;;;;;;;0.8;0.6;;;;;;;;;;;;;
2023/04/16 10:15:12;;;;;;;0.6;0.6;;;;;;;;;;;;;
2023/04/16 10:17:41;;;;;;;0.6;0.6;;;;;;;;;;;;;
2023/04/16 10:20:06;;;;;;;1.2;0.7;;;;;;;;;;;;;
2023/04/16 10:22:31;;;;;;;0.6;0.6;;;;;;;;;;;;;
2023/04/16 10:24:56;;;;;;;0.6;0.6;;;;;;;;;;;;;
2023/04/16 10:27:21;;;;;;;0.6;0.6;;;;;;;;;;;;;
2023/04/16 10:29:46;;;;;;;0.5;0.5;;;;;;;;;;;;;
2023/04/16 10:32:13;;;;;;;0.7;0.7;;;;;;;;;;;;;
2023/04/16 10:34:38;;;;;;;0.6;0.6;;;;;;;;;;;;;
2023/04/16 10:37:03;;;;;;;0.7;0.7;;;;;;;;;;;;;
2023/04/16 10:39:28;;;;;;;0.7;0.7;;;;;;;;;;;;;
2023/04/16 10:41:53;;;;;;;0.6;0.6;;;;;;;;;;;;;
2023/04/16 10:44:19;;;;;;;1;0.8;;;;;;;;;;;;;
2023/04/16 10:46:44;;;;;;;0.5;0.5;;;;;;;;;;;;;
2023/04/16 10:49:09;;;;;;;0.5;0.5;;;;;;;;;;;;;
2023/04/16 10:51:35;;;;;;;0.5;0.5;;;;;;;;;;;;;
2023/04/16 10:54:00;;;;;;;0.5;0.5;;;;;;;;;;;;;
2023/04/16 10:56:25;;;;;;;0.5;0.5;;;;;;;;;;;;;
2023/04/16 10:58:50;;;;;;;1.2;1.1;;;;;;;;;;;;;
2023/04/16 11:01:17;;;;;;;1;1;;;;;;;;;;;;;
2023/04/16 11:03:41;;;;;;;1.2;1;;;;;;;;;;;;;
2023/04/16 11:06:06;;;;;;;1.1;1;;;;;;;;;;;;;
2023/04/16 11:08:31;;;;;;;1.1;0.9;;;;;;;;;;;;;
2023/04/16 11:10:56;;;;;;;1.1;1;;;;;;;;;;;;;
2023/04/16 11:13:21;;;;;;;1.5;1.3;;;;;;;;;;;;;
2023/04/16 11:15:48;;;;;;;1.5;1.4;;;;;;;;;;;;;
2023/04/16 11:18:13;;;;;;;1.6;1.5;;;;;;;;;;;;;
2023/04/16 11:20:39;;;;;;;1.7;1.6;;;;;;;;;;;;;
2023/04/16 11:23:05;;;;;;;1.7;1.2;;;;;;;;;;;;;
2023/04/16 11:25:30;;;;;;;1.3;1.2;;;;;;;;;;;;;
2023/04/16 11:27:55;;;;;;;1.3;1.2;;;;;;;;;;;;;
2023/04/16 11:30:21;;;;;;;1.5;1.4;;;;;;;;;;;;;
2023/04/16 11:32:46;;;;;;;1.5;1.4;;;;;;;;;;;;;
2023/04/16 11:35:11;;;;;;;1.8;1.5;;;;;;;;;;;;;
2023/04/16 11:37:36;;;;;;;1.9;1.6;;;;;;;;;;;;;
2023/04/16 11:40:02;;;;;;;1.4;1.3;;;;;;;;;;;;;
2023/04/16 11:42:27;;;;;;;1.2;1.2;;;;;;;;;;;;;
2023/04/16 11:44:52;;;;;;;2.2;1.3;;;;;;;;;;;;;
2023/04/16 11:47:17;;;;;;;1.3;1.2;;;;;;;;;;;;;
2023/04/16 11:49:42;;;;;;;1.4;1.3;;;;;;;;;;;;;
2023/04/16 11:52:07;;;;;;;1;1;;;;;;;;;;;;;
2023/04/16 11:54:35;;;;;;;1.1;1;;;;;;;;;;;;;
2023/04/16 11:57:00;;;;;;;1.5;1.1;;;;;;;;;;;;;
2023/04/16 11:59:25;;;;;;;1.3;1.2;;;;;;;;;;;;;
2023/04/16 12:01:50;;;;;;;1.1;1;;;;;;;;;;;;;
2023/04/16 12:04:15;;;;;;;0.8;0.8;;;;;;;;;;;;;
2023/04/16 12:06:40;;;;;;;0.9;0.9;;;;;;;;;;;;;
2023/04/16 12:09:06;;;;;;;0.7;0.7;;;;;;;;;;;;;
2023/04/16 12:11:31;;;;;;;1;0.9;;;;;;;;;;;;;
2023/04/16 12:13:56;;;;;;;0.6;0.6;;;;;;;;;;;;;
2023/04/16 12:16:22;;;;;;;0.8;0.8;;;;;;;;;;;;;
2023/04/16 12:18:47;;;;;;;0.8;0.8;;;;;;;;;;;;;
2023/04/16 12:21:12;;;;;;;0.6;0.6;;;;;;;;;;;;;
2023/04/16 12:23:37;;;;;;;0.6;0.6;;;;;;;;;;;;;
2023/04/16 12:26:02;;;;;;;0.7;0.6;;;;;;;;;;;;;
2023/04/16 12:28:27;;;;;;;1.3;0.4;;;;;;;;;;;;;
2023/04/16 12:30:52;;;;;;;0.6;0.6;;;;;;;;;;;;;
2023/04/16 12:33:18;;;;;;;0.7;0.7;;;;;;;;;;;;;
2023/04/16 12:35:43;;;;;;;0.8;0.8;;;;;;;;;;;;;
2023/04/16 12:38:10;;;;;;;0.9;0.8;;;;;;;;;;;;;
2023/04/16 12:40:35;;;;;;;0.5;0.5;;;;;;;;;;;;;
2023/04/16 12:43:00;;;;;;;0.4;0.4;;;;;;;;;;;;;
2023/04/16 12:45:25;;;;;;;0.8;0.5;;;;;;;;;;;;;
2023/04/16 12:47:51;;;;;;;0.5;0.5;;;;;;;;;;;;;
2023/04/16 12:50:16;;;;;;;0.8;0.4;;;;;;;;;;;;;
2023/04/16 12:52:43;;;;;;;0.6;0.5;;;;;;;;;;;;;
2023/04/16 12:55:08;;;;;;;1.3;0.8;;;;;;;;;;;;;
2023/04/16 12:57:34;;;;;;;0.4;0.4;;;;;;;;;;;;;
2023/04/16 12:59:59;;;;;;;0.4;0.4;;;;;;;;;;;;;
2023/04/16 13:02:25;;;;;;;0.4;0.4;;;;;;;;;;;;;
2023/04/16 13:04:50;;;;;;;0.4;0.4;;;;;;;;;;;;;
2023/04/16 13:07:15;;;;;;;0.8;0.8;;;;;;;;;;;;;
2023/04/16 13:09:40;;;;;;;0.8;0.6;;;;;;;;;;;;;
2023/04/16 13:12:05;;;;;;;0.5;0.5;;;;;;;;;;;;;
2023/04/16 13:14:30;;;;;;;0.7;0.7;;;;;;;;;;;;;
2023/04/16 13:16:56;;;;;;;0.6;0.6;;;;;;;;;;;;;
2023/04/16 13:19:21;;;;;;;0.8;0.6;;;;;;;;;;;;;
2023/04/16 13:21:46;;;;;;;0.5;0.5;;;;;;;;;;;;;
2023/04/16 13:24:13;;;;;;;1.1;0.8;;;;;;;;;;;;;
2023/04/16 13:26:38;;;;;;;1.3;0.9;;;;;;;;;;;;;
2023/04/16 13:29:03;;;;;;;0.6;0.6;;;;;;;;;;;;;
2023/04/16 13:31:28;;;;;;;0.8;0.8;;;;;;;;;;;;;
2023/04/16 13:33:55;;;;;;;1;0.7;;;;;;;;;;;;;
2023/04/16 13:36:20;;;;;;;0.8;0.8;;;;;;;;;;;;;
2023/04/16 13:38:45;;;;;;;0.9;0.7;;;;;;;;;;;;;
2023/04/16 13:41:10;;;;;;;0.8;0.8;;;;;;;;;;;;;
2023/04/16 13:43:37;;;;;;;0.7;0.7;;;;;;;;;;;;;
2023/04/16 13:46:03;;;;;;;1.5;0.7;;;;;;;;;;;;;
2023/04/16 13:48:28;;;;;;;0.9;0.7;;;;;;;;;;;;;
2023/04/16 13:50:53;;;;;;;1;0.8;;;;;;;;;;;;;
2023/04/16 13:53:19;;;;;;;0.7;0.7;;;;;;;;;;;;;
2023/04/16 13:55:44;;;;;;;0.8;0.7;;;;;;;;;;;;;
2023/04/16 13:58:10;;;;;;;0.6;0.6;;;;;;;;;;;;;
2023/04/16 14:00:35;;;;;;;0.8;0.6;;;;;;;;;;;;;
2023/04/16 14:03:02;;;;;;;0.4;0.4;;;;;;;;;;;;;
2023/04/16 14:05:27;;;;;;;0.6;0.6;;;;;;;;;;;;;
2023/04/16 14:07:52;;;;;;;0.9;0.9;;;;;;;;;;;;;
2023/04/16 14:10:17;;;;;;;0.7;0.7;;;;;;;;;;;;;
2023/04/16 14:12:44;;;;;;;1.2;1;;;;;;;;;;;;;
2023/04/16 14:15:10;;;;;;;0.7;0.7;;;;;;;;;;;;;
2023/04/16 14:17:37;;;;;;;0.6;0.6;;;;;;;;;;;;;
2023/04/16 14:20:02;;;;;;;0.7;0.7;;;;;;;;;;;;;
2023/04/16 14:22:28;;;;;;;0.7;0.7;;;;;;;;;;;;;
2023/04/16 14:24:53;;;;;;;1.5;0.8;;;;;;;;;;;;;
2023/04/16 14:27:18;;;;;;;1.2;0.7;;;;;;;;;;;;;
2023/04/16 14:29:45;;;;;;;0.6;0.6;;;;;;;;;;;;;
2023/04/16 14:32:09;;;;;;;0.7;0.7;;;;;;;;;;;;;
2023/04/16 14:34:34;;;;;;;1.1;0.9;;;;;;;;;;;;;
2023/04/16 14:37:00;;;;;;;0.9;0.8;;;;;;;;;;;;;
2023/04/16 14:39:25;;;;;;;1.6;1.2;;;;;;;;;;;;;
2023/04/16 14:41:52;;;;;;;1.4;1.3;;;;;;;;;;;;;
2023/04/16 14:44:17;;;;;;;1.1;1;;;;;;;;;;;;;
2023/04/16 14:46:45;;;;;;;2.1;1.5;;;;;;;;;;;;;
2023/04/16 14:49:09;;;;;;;2.1;1.5;;;;;;;;;;;;;
2023/04/16 14:51:34;;;;;;;1.8;1.4;;;;;;;;;;;;;
2023/04/16 14:53:59;;;;;;;1.3;1.2;;;;;;;;;;;;;
2023/04/16 14:56:25;;;;;;;1.5;1.4;;;;;;;;;;;;;
2023/04/16 14:58:50;;;;;;;2.6;1.4;;;;;;;;;;;;;
2023/04/16 15:01:16;;;;;;;1.5;1.4;;;;;;;;;;;;;
2023/04/16 15:03:41;;;;;;;1.2;1.1;;;;;;;;;;;;;
2023/04/16 15:06:08;;;;;;;0.7;0.7;;;;;;;;;;;;;
2023/04/16 15:08:33;;;;;;;1;0.8;;;;;;;;;;;;;
2023/04/16 15:10:59;;;;;;;1.7;1.2;;;;;;;;;;;;;
2023/04/16 15:13:24;;;;;;;1.3;1.1;;;;;;;;;;;;;
2023/04/16 15:15:52;;;;;;;2.1;1.4;;;;;;;;;;;;;
2023/04/16 15:18:17;;;;;;;2.2;1.6;;;;;;;;;;;;;
2023/04/16 15:20:42;;;;;;;2.3;1.4;;;;;;;;;;;;;
2023/04/16 15:23:07;;;;;;;2.1;1.4;;;;;;;;;;;;;
2023/04/16 15:25:35;;;;;;;1.8;1.6;;;;;;;;;;;;;
2023/04/16 15:28:01;;;;;;;1.4;1.3;;;;;;;;;;;;;
2023/04/16 15:30:29;;;;;;;1.3;1.1;;;;;;;;;;;;;
2023/04/16 15:32:54;;;;;;;1.7;1.6;;;;;;;;;;;;;
2023/04/16 15:35:19;;;;;;;1.9;1.2;;;;;;;;;;;;;
2023/04/16 15:37:44;;;;;;;1;1;;;;;;;;;;;;;
2023/04/16 15:40:11;;;;;;;0.9;0.9;;;;;;;;;;;;;
2023/04/16 15:42:36;;;;;;;1.1;1;;;;;;;;;;;;;
2023/04/16 15:45:02;;;;;;;1.4;1.1;;;;;;;;;;;;;
2023/04/16 15:47:27;;;;;;;1.4;1.3;;;;;;;;;;;;;
2023/04/16 15:49:53;;;;;;;1.4;1.1;;;;;;;;;;;;;
2023/04/16 15:52:18;;;;;;;1.1;1;;;;;;;;;;;;;
2023/04/16 15:54:44;;;;;;;0.9;0.8;;;;;;;;;;;;;
2023/04/16 15:57:09;;;;;;;1.1;1;;;;;;;;;;;;;
2023/04/16 15:59:36;;;;;;;1.1;1;;;;;;;;;;;;;
2023/04/16 16:02:01;;;;;;;1;0.9;;;;;;;;;;;;;
2023/04/16 16:04:27;;;;;;;1;0.9;;;;;;;;;;;;;
2023/04/16 16:06:52;;;;;;;1.4;1.1;;;;;;;;;;;;;
2023/04/16 16:09:24;;;;;;;1.3;0.9;;;;;;;;;;;;;
2023/04/16 16:11:43;;;;;;;1;1;;;;;;;;;;;;;
2023/04/16 16:14:09;;;;;;;0.8;0.7;;;;;;;;;;;;;
2023/04/16 16:16:35;;;;;;;1.1;1;;;;;;;;;;;;;
2023/04/16 16:19:00;;;;;;;1;0.9;;;;;;;;;;;;;
2023/04/16 16:21:27;;;;;;;1;0.9;;;;;;;;;;;;;
2023/04/16 16:23:51;;;;;;;1.1;1;;;;;;;;;;;;;
2023/04/16 16:26:16;;;;;;;0.8;0.8;;;;;;;;;;;;;
2023/04/16 16:28:43;;;;;;;0.7;0.7;;;;;;;;;;;;;
2023/04/16 16:31:08;;;;;;;0.5;0.5;;;;;;;;;;;;;
2023/04/16 16:33:34;;;;;;;0.3;0.3;;;;;;;;;;;;;
2023/04/16 16:35:59;;;;;;;0.3;0.2;;;;;;;;;;;;;
2023/04/16 16:38:26;;;;;;;0.3;0.3;;;;;;;;;;;;;
2023/04/16 16:40:51;;;;;;;0.4;0.4;;;;;;;;;;;;;
2023/04/16 16:43:17;;;;;;;0.7;0.6;;;;;;;;;;;;;
2023/04/16 16:45:42;;;;;;;1.5;1.4;;;;;;;;;;;;;
2023/04/16 16:48:08;;;;;;;1.7;1.6;;;;;;;;;;;;;
2023/04/16 16:50:33;;;;;;;3;1.8;;;;;;;;;;;;;
2023/04/16 16:52:59;;;;;;;2.2;1.8;;;;;;;;;;;;;
2023/04/16 16:55:24;;;;;;;2.2;2;;;;;;;;;;;;;
2023/04/16 16:57:50;;;;;;;2.2;2;;;;;;;;;;;;;
2023/04/16 17:00:18;;;;;;;2.4;2.2;;;;;;;;;;;;;
2023/04/16 17:02:41;;;;;;;2.2;2;;;;;;;;;;;;;
2023/04/16 17:05:06;;;;;;;2.6;2.3;;;;;;;;;;;;;
2023/04/16 17:07:31;;;;;;;2.4;2.2;;;;;;;;;;;;;
2023/04/16 17:09:57;;;;;;;2.8;2.5;;;;;;;;;;;;;
2023/04/16 17:12:22;;;;;;;2.9;2.3;;;;;;;;;;;;;
2023/04/16 17:14:48;;;;;;;3.1;2.8;;;;;;;;;;;;;
2023/04/16 17:17:13;;;;;;;3.1;2.7;;;;;;;;;;;;;
2023/04/16 17:19:39;;;;;;;3.5;2.9;;;;;;;;;;;;;
2023/04/16 17:22:04;;;;;;;3.2;2.5;;;;;;;;;;;;;
2023/04/16 17:24:31;;;;;;;3.4;2.4;;;;;;;;;;;;;
2023/04/16 17:26:57;;;;;;;2.4;2.1;;;;;;;;;;;;;
2023/04/16 17:29:24;;;;;;;2.9;2.4;;;;;;;;;;;;;
2023/04/16 17:31:47;;;;;;;2.5;2.2;;;;;;;;;;;;;
2023/04/16 17:34:13;;;;;;;1.9;1.7;;;;;;;;;;;;;
2023/04/16 17:36:38;;;;;;;2.1;1.9;;;;;;;;;;;;;
2023/04/16 17:39:03;;;;;;;2.4;1.9;;;;;;;;;;;;;
2023/04/16 17:41:28;;;;;;;2.5;2.2;;;;;;;;;;;;;
2023/04/16 17:43:54;;;;;;;3.2;2.3;;;;;;;;;;;;;
2023/04/16 17:46:20;;;;;;;3.2;2.4;;;;;;;;;;;;;
2023/04/16 17:48:47;;;;;;;2.5;1.7;;;;;;;;;;;;;
2023/04/16 17:51:10;;;;;;;1.6;1.2;;;;;;;;;;;;;
2023/04/16 17:53:38;;;;;;;1.4;1.3;;;;;;;;;;;;;
2023/04/16 17:56:03;;;;;;;1.6;1.5;;;;;;;;;;;;;
2023/04/16 17:58:31;;;;;;;2.1;1.8;;;;;;;;;;;;;
2023/04/16 18:00:53;;;;;;;2;1.8;;;;;;;;;;;;;
2023/04/16 18:03:24;;;;;;;1.6;1.5;;;;;;;;;;;;;
2023/04/16 18:05:50;;;;;;;1.9;1.7;;;;;;;;;;;;;
2023/04/16 18:08:15;;;;;;;1.8;1.7;;;;;;;;;;;;;
2023/04/16 18:10:40;;;;;;;3.6;1.9;;;;;;;;;;;;;
2023/04/16 18:13:05;;;;;;;2;1.6;;;;;;;;;;;;;
2023/04/16 18:15:32;;;;;;;1.8;1.7;;;;;;;;;;;;;
2023/04/16 18:17:57;;;;;;;2.1;1.5;;;;;;;;;;;;;
2023/04/16 18:20:22;;;;;;;2.3;1.6;;;;;;;;;;;;;
2023/04/16 18:22:47;;;;;;;1.9;1.7;;;;;;;;;;;;;
2023/04/16 18:25:12;;;;;;;2.2;1.6;;;;;;;;;;;;;
2023/04/16 18:27:39;;;;;;;1.4;1.2;;;;;;;;;;;;;
2023/04/16 18:30:05;;;;;;;1.9;1.1;;;;;;;;;;;;;
2023/04/16 18:32:30;;;;;;;1.6;0.7;;;;;;;;;;;;;
2023/04/16 18:34:55;;;;;;;0.8;0.6;;;;;;;;;;;;;
2023/04/16 18:37:21;;;;;;;0.7;0.6;;;;;;;;;;;;;
2023/04/16 18:39:46;;;;;;;1;0.9;;;;;;;;;;;;;
2023/04/16 18:42:12;;;;;;;0.9;0.9;;;;;;;;;;;;;
2023/04/16 18:44:37;;;;;;;0.6;0.6;;;;;;;;;;;;;
2023/04/16 18:47:03;;;;;;;0.7;0.7;;;;;;;;;;;;;
2023/04/16 18:49:28;;;;;;;0.5;0.5;;;;;;;;;;;;;
2023/04/16 18:51:55;;;;;;;0.5;0.5;;;;;;;;;;;;;
2023/04/16 18:54:20;;;;;;;1.4;0.8;;;;;;;;;;;;;
2023/04/16 18:56:46;;;;;;;0.7;0.7;;;;;;;;;;;;;
2023/04/16 18:59:11;;;;;;;1.4;0.8;;;;;;;;;;;;;
2023/04/16 19:01:37;;;;;;;1.1;0.9;;;;;;;;;;;;;
2023/04/16 19:04:02;;;;;;;0.6;0.6;;;;;;;;;;;;;
2023/04/16 19:06:28;;;;;;;0.5;0.3;;;;;;;;;;;;;
2023/04/16 19:08:53;;;;;;;1.1;1;;;;;;;;;;;;;
2023/04/16 19:11:19;;;;;;;0.9;0.9;;;;;;;;;;;;;